createdAt,value
2018-04-06T00:00:07.295Z,99754.12
2018-04-06T00:02:36.495Z,99755.81
2018-04-06T00:05:06.598Z,99754.05
2018-04-06T00:07:35.377Z,99760.34
2018-04-06T00:10:04.673Z,99760.48
2018-04-06T00:12:34.607Z,99764.17
2018-04-06T00:15:03.012Z,99760.59
2018-04-06T00:17:32.309Z,99762.95
2018-04-06T00:20:03.532Z,99765.61
2018-04-06T00:22:31.964Z,99755.28
2018-04-06T00:25:01.249Z,99759.73
2018-04-06T00:27:30.119Z,99768.52
2018-04-06T00:29:59.468Z,99766.32
2018-04-06T00:32:30.298Z,99767.17
2018-04-06T00:34:59.406Z,99763.78
2018-04-06T00:37:28.659Z,99751.92
2018-04-06T00:39:57.018Z,99757.45
2018-04-06T00:42:26.285Z,99748.44
2018-04-06T00:44:54.650Z,99747.12
2018-04-06T00:47:23.926Z,99748.34
2018-04-06T00:49:52.292Z,99747.97
2018-04-06T00:52:22.368Z,99744.62
2018-04-06T00:54:52.624Z,99739.61
2018-04-06T00:57:21.891Z,99743.99
2018-04-06T00:59:52.135Z,99742.33
2018-04-06T01:02:21.156Z,99746.39
2018-04-06T01:04:50.301Z,99739.33
2018-04-06T01:07:18.928Z,99747.16
2018-04-06T01:09:48.755Z,99749.68
2018-04-06T01:12:18.192Z,99745.92
2018-04-06T01:14:47.082Z,99746.56
2018-04-06T01:17:16.348Z,99748.73
2018-04-06T01:19:46.463Z,99746.30
2018-04-06T01:22:15.734Z,99744.47
2018-04-06T01:24:44.876Z,99739.24
2018-04-06T01:27:14.759Z,99740.95
2018-04-06T01:29:45.904Z,99741.91
2018-04-06T01:32:15.754Z,99744.31
2018-04-06T01:34:44.095Z,99734.77
2018-04-06T01:37:13.707Z,99734.70
2018-04-06T01:39:43.439Z,99736.63
2018-04-06T01:42:12.589Z,99743.34
2018-04-06T01:44:42.107Z,99738.07
2018-04-06T01:47:11.106Z,99741.30
2018-04-06T01:49:39.837Z,99740.91
2018-04-06T01:52:09.333Z,99740.43
2018-04-06T01:54:39.525Z,99738.92
2018-04-06T01:57:09.606Z,99744.08
2018-04-06T01:59:39.292Z,99748.94
2018-04-06T02:02:08.571Z,99745.67
2018-04-06T02:04:37.810Z,99748.23
2018-04-06T02:07:07.539Z,99745.88
2018-04-06T02:09:36.603Z,99743.92
2018-04-06T02:12:05.529Z,99740.38
2018-04-06T02:14:34.761Z,99737.94
2018-04-06T02:17:03.121Z,99743.07
2018-04-06T02:19:31.909Z,99744.04
2018-04-06T02:22:01.931Z,99742.70
2018-04-06T02:24:32.665Z,99742.39
2018-04-06T02:27:02.421Z,99745.92
2018-04-06T02:29:31.569Z,99744.97
2018-04-06T02:32:01.641Z,99750.20
2018-04-06T02:34:31.003Z,99745.72
2018-04-06T02:36:59.379Z,99747.30
2018-04-06T02:39:29.318Z,99752.17
2018-04-06T02:41:58.744Z,99746.40
2018-04-06T02:44:29.371Z,99754.48
2018-04-06T02:47:00.554Z,99754.87
2018-04-06T02:49:28.983Z,99753.48
2018-04-06T02:51:59.507Z,99751.70
2018-04-06T02:54:30.446Z,99758.19
2018-04-06T02:56:58.820Z,99767.79
2018-04-06T02:59:28.998Z,99772.05
2018-04-06T03:01:58.952Z,99768.81
2018-04-06T03:04:28.448Z,99762.34
2018-04-06T03:06:57.750Z,99770.19
2018-04-06T03:09:28.129Z,99774.83
2018-04-06T03:11:56.950Z,99769.59
2018-04-06T03:14:27.215Z,99769.56
2018-04-06T03:16:56.324Z,99763.88
2018-04-06T03:19:24.735Z,99768.16
2018-04-06T03:21:53.103Z,99773.14
2018-04-06T03:24:24.192Z,99766.98
2018-04-06T03:26:54.687Z,99766.09
2018-04-06T03:29:23.046Z,99761.66
2018-04-06T03:31:52.890Z,99765.22
2018-04-06T03:34:21.535Z,99766.44
2018-04-06T03:36:50.743Z,99762.33
2018-04-06T03:39:20.545Z,99765.50
2018-04-06T03:41:49.280Z,99767.97
2018-04-06T03:44:17.782Z,99765.09
2018-04-06T03:46:46.174Z,99764.27
2018-04-06T03:49:17.543Z,99764.36
2018-04-06T03:51:47.452Z,99767.02
2018-04-06T03:54:15.820Z,99772.61
2018-04-06T03:56:47.704Z,99764.95
2018-04-06T03:59:16.117Z,99768.86
2018-04-06T04:01:45.153Z,99755.53
2018-04-06T04:04:14.476Z,99754.80
2018-04-06T04:06:44.007Z,99759.55
2018-04-06T04:09:14.429Z,99751.88
2018-04-06T04:11:44.868Z,99761.92
2018-04-06T04:14:15.446Z,99756.45
2018-04-06T04:16:44.453Z,99756.54
2018-04-06T04:19:15.144Z,99757.36
2018-04-06T04:21:44.285Z,99754.02
2018-04-06T04:24:12.607Z,99760.75
2018-04-06T04:26:42.102Z,99759.94
2018-04-06T04:29:11.301Z,99766.30
2018-04-06T04:31:40.562Z,99754.81
2018-04-06T04:34:09.310Z,99763.80
2018-04-06T04:36:37.879Z,99757.43
2018-04-06T04:39:06.790Z,99760.72
2018-04-06T04:41:36.635Z,99757.59
2018-04-06T04:44:07.645Z,99750.59
2018-04-06T04:46:37.112Z,99753.34
2018-04-06T04:49:07.192Z,99750.36
2018-04-06T04:51:36.560Z,99749.30
2018-04-06T04:54:05.778Z,99748.98
2018-04-06T04:56:35.104Z,99748.32
2018-04-06T04:59:03.480Z,99753.84
2018-04-06T05:01:32.884Z,99751.42
2018-04-06T05:04:03.689Z,99747.92
2018-04-06T05:06:33.055Z,99749.48
2018-04-06T05:09:03.242Z,99753.53
2018-04-06T05:11:33.734Z,99759.76
2018-04-06T05:14:02.068Z,99751.52
2018-04-06T05:16:32.758Z,99755.23
2018-04-06T05:19:02.163Z,99764.97
2018-04-06T05:21:31.504Z,99757.86
2018-04-06T05:24:01.833Z,99757.91
2018-04-06T05:26:32.350Z,99777.25
2018-04-06T05:29:00.783Z,99771.05
2018-04-06T05:31:29.988Z,99777.00
2018-04-06T05:33:59.935Z,99779.14
2018-04-06T05:36:30.394Z,99776.20
2018-04-06T05:38:59.332Z,99791.31
2018-04-06T05:41:28.410Z,99794.73
2018-04-06T05:43:58.277Z,99791.17
2018-04-06T05:46:28.818Z,99791.92
2018-04-06T05:48:57.341Z,99795.67
2018-04-06T05:51:26.357Z,99799.34
2018-04-06T05:53:58.340Z,99797.56
2018-04-06T05:56:28.205Z,99797.56
2018-04-06T05:58:56.643Z,99804.22
2018-04-06T06:01:25.719Z,99797.33
2018-04-06T06:03:55.116Z,99802.19
2018-04-06T06:06:23.835Z,99805.14
2018-04-06T06:08:53.170Z,99798.97
2018-04-06T06:11:21.758Z,99804.11
2018-04-06T06:13:50.842Z,99807.64
2018-04-06T06:16:21.495Z,99801.19
2018-04-06T06:18:52.262Z,99804.86
2018-04-06T06:21:21.154Z,99812.24
2018-04-06T06:23:50.356Z,99812.30
2018-04-06T06:26:20.386Z,99812.27
2018-04-06T06:28:49.460Z,99815.83
2018-04-06T06:31:19.036Z,99823.66
2018-04-06T06:33:48.129Z,99828.67
2018-04-06T06:36:19.239Z,99825.83
2018-04-06T06:38:48.742Z,99829.77
2018-04-06T06:41:18.968Z,99831.52
2018-04-06T06:43:49.607Z,99833.56
2018-04-06T06:46:17.934Z,99830.70
2018-04-06T06:48:47.187Z,99830.49
2018-04-06T06:51:16.640Z,99836.47
2018-04-06T06:53:45.966Z,99835.16
2018-04-06T06:56:16.142Z,99835.77
2018-04-06T06:58:45.919Z,99844.16
2018-04-06T07:01:16.072Z,99840.75
2018-04-06T07:03:44.703Z,99836.79
2018-04-06T07:06:13.077Z,99841.86
2018-04-06T07:08:43.967Z,99834.45
2018-04-06T07:11:14.869Z,99833.24
2018-04-06T07:13:44.020Z,99823.98
2018-04-06T07:16:14.205Z,99826.47
2018-04-06T07:18:45.578Z,99821.38
2018-04-06T07:21:14.966Z,99820.88
2018-04-06T07:23:44.214Z,99822.30
2018-04-06T07:26:14.089Z,99817.92
2018-04-06T07:28:43.172Z,99811.14
2018-04-06T07:31:12.595Z,99810.21
2018-04-06T07:33:41.814Z,99806.42
2018-04-06T07:36:12.239Z,99805.98
2018-04-06T07:38:42.889Z,99805.41
2018-04-06T07:41:11.989Z,99802.26
2018-04-06T07:43:41.303Z,99798.45
2018-04-06T07:46:09.663Z,99798.23
2018-04-06T07:48:38.021Z,99793.79
2018-04-06T07:51:08.008Z,99789.59
2018-04-06T07:53:37.043Z,99781.84
2018-04-06T07:56:06.306Z,99783.59
2018-04-06T07:58:34.647Z,99779.09
2018-04-06T08:01:03.518Z,99782.49
2018-04-06T08:03:33.198Z,99773.48
2018-04-06T08:06:01.570Z,99778.20
2018-04-06T08:08:30.033Z,99777.33
2018-04-06T08:10:58.666Z,99773.56
2018-04-06T08:13:29.532Z,99782.86
2018-04-06T08:16:00.867Z,99778.61
2018-04-06T08:18:29.495Z,99775.72
2018-04-06T08:20:58.824Z,99772.50
2018-04-06T08:23:28.501Z,99769.20
2018-04-06T08:25:57.656Z,99771.38
2018-04-06T08:28:26.978Z,99768.28
2018-04-06T08:30:55.971Z,99758.86
2018-04-06T08:33:24.978Z,99751.89
2018-04-06T08:35:55.073Z,99747.31
2018-04-06T08:38:23.709Z,99741.83
2018-04-06T08:40:55.794Z,99736.08
2018-04-06T08:43:24.140Z,99737.25
2018-04-06T08:45:52.538Z,99734.98
2018-04-06T08:48:22.195Z,99738.45
2018-04-06T08:50:52.758Z,99732.13
2018-04-06T08:53:21.096Z,99724.67
2018-04-06T08:55:49.402Z,99723.36
2018-04-06T08:58:18.572Z,99715.75
2018-04-06T09:00:47.118Z,99714.73
2018-04-06T09:03:16.302Z,99701.21
2018-04-06T09:05:45.413Z,99706.66
2018-04-06T09:08:13.837Z,99714.59
2018-04-06T09:10:42.967Z,99708.30
2018-04-06T09:13:12.950Z,99701.49
2018-04-06T09:15:41.318Z,99700.74
2018-04-06T09:18:09.719Z,99699.59
2018-04-06T09:20:38.294Z,99699.76
2018-04-06T09:23:09.360Z,99700.06
2018-04-06T09:25:38.560Z,99698.33
2018-04-06T09:28:06.952Z,99698.48
2018-04-06T09:30:36.243Z,99699.33
2018-04-06T09:33:04.652Z,99686.94
2018-04-06T09:35:34.542Z,99686.95
2018-04-06T09:38:03.143Z,99675.89
2018-04-06T09:40:31.458Z,99681.37
2018-04-06T09:42:59.935Z,99670.25
2018-04-06T09:45:29.890Z,99664.41
2018-04-06T09:47:59.895Z,99666.11
2018-04-06T09:50:28.209Z,99667.15
2018-04-06T09:52:57.264Z,99658.81
2018-04-06T09:55:28.657Z,99655.69
2018-04-06T09:57:59.904Z,99653.42
2018-04-06T10:00:32.931Z,99647.88
2018-04-06T10:03:03.150Z,99650.16
2018-04-06T10:05:32.886Z,99642.16
2018-04-06T10:08:02.887Z,99652.02
2018-04-06T10:10:31.295Z,99645.23
2018-04-06T10:12:59.687Z,99642.06
2018-04-06T10:15:28.395Z,99647.75
2018-04-06T10:17:57.028Z,99634.66
2018-04-06T10:20:26.090Z,99635.23
2018-04-06T10:22:55.004Z,99631.78
2018-04-06T10:25:23.383Z,99629.45
2018-04-06T10:27:52.692Z,99630.30
2018-04-06T10:30:23.675Z,99631.09
2018-04-06T10:32:52.018Z,99632.37
2018-04-06T10:35:21.698Z,99635.19
2018-04-06T10:37:50.847Z,99637.47
2018-04-06T10:40:19.881Z,99637.73
2018-04-06T10:42:48.602Z,99630.92
2018-04-06T10:45:17.385Z,99626.00
2018-04-06T10:47:48.083Z,99625.05
2018-04-06T10:50:18.257Z,99608.73
2018-04-06T10:52:48.301Z,99611.95
2018-04-06T10:55:17.648Z,99596.11
2018-04-06T10:57:47.154Z,99593.94
2018-04-06T11:00:16.924Z,99593.91
2018-04-06T11:02:46.110Z,99586.73
2018-04-06T11:05:15.371Z,99583.95
2018-04-06T11:07:43.767Z,99581.23
2018-04-06T11:10:12.792Z,99577.14
2018-04-06T11:12:41.084Z,99570.56
2018-04-06T11:15:10.815Z,99567.61
2018-04-06T11:17:39.168Z,99572.09
2018-04-06T11:20:07.560Z,99572.20
2018-04-06T11:22:36.952Z,99572.94
2018-04-06T11:25:05.307Z,99568.97
2018-04-06T11:27:34.646Z,99561.14
2018-04-06T11:30:03.007Z,99562.15
2018-04-06T11:32:32.320Z,99547.39
2018-04-06T11:35:00.947Z,99543.55
2018-04-06T11:37:30.966Z,99541.22
2018-04-06T11:39:59.956Z,99529.97
2018-04-06T11:42:28.324Z,99537.03
2018-04-06T11:44:57.920Z,99529.94
2018-04-06T11:47:27.146Z,99527.95
2018-04-06T11:49:55.546Z,99525.46
2018-04-06T11:52:23.885Z,99523.63
2018-04-06T11:54:52.644Z,99517.62
2018-04-06T11:57:21.027Z,99510.51
2018-04-06T11:59:50.934Z,99516.51
2018-04-06T12:02:19.304Z,99513.55
2018-04-06T12:04:47.648Z,99505.69
2018-04-06T12:07:16.026Z,99499.22
2018-04-06T12:09:45.957Z,99491.13
2018-04-06T12:12:14.691Z,99488.01
2018-04-06T12:14:43.911Z,99487.45
2018-04-06T12:17:12.856Z,99479.78
2018-04-06T12:19:42.296Z,99481.72
2018-04-06T12:22:10.728Z,99480.57
2018-04-06T12:24:39.087Z,99475.64
2018-04-06T12:27:08.355Z,99470.46
2018-04-06T12:29:36.745Z,99465.39
2018-04-06T12:32:05.919Z,99463.72
2018-04-06T12:34:34.294Z,99455.48
2018-04-06T12:37:03.792Z,99455.02
2018-04-06T12:39:32.259Z,99446.68
2018-04-06T12:42:02.159Z,99457.44
2018-04-06T12:44:30.789Z,99438.47
2018-04-06T12:47:00.008Z,99442.18
2018-04-06T12:49:28.445Z,99438.92
2018-04-06T12:51:58.064Z,99431.12
2018-04-06T12:54:28.550Z,99432.30
2018-04-06T12:56:56.906Z,99432.73
2018-04-06T12:59:26.049Z,99425.23
2018-04-06T13:01:54.784Z,99428.55
2018-04-06T13:04:25.478Z,99419.22
2018-04-06T13:06:55.668Z,99415.86
2018-04-06T13:09:24.396Z,99413.89
2018-04-06T13:11:53.536Z,99419.88
2018-04-06T13:14:22.343Z,99417.86
2018-04-06T13:16:51.596Z,99413.41
2018-04-06T13:19:19.991Z,99409.34
2018-04-06T13:21:51.344Z,99414.33
2018-04-06T13:24:19.706Z,99403.33
2018-04-06T13:26:48.079Z,99397.32
2018-04-06T13:29:16.438Z,99389.95
2018-04-06T13:31:45.954Z,99384.06
2018-04-06T13:34:15.229Z,99385.81
2018-04-06T13:36:44.621Z,99385.84
2018-04-06T13:39:12.974Z,99385.19
2018-04-06T13:41:42.203Z,99381.41
2018-04-06T13:44:10.563Z,99380.05
2018-04-06T13:46:38.974Z,99370.08
2018-04-06T13:49:07.304Z,99366.77
2018-04-06T13:51:35.971Z,99365.11
2018-04-06T13:54:04.702Z,99361.16
2018-04-06T13:56:33.863Z,99352.94
2018-04-06T13:59:02.255Z,99347.70
2018-04-06T14:01:31.251Z,99345.11
2018-04-06T14:04:01.987Z,99334.43
2018-04-06T14:06:30.830Z,99325.95
2018-04-06T14:09:00.820Z,99329.00
2018-04-06T14:11:32.912Z,99319.23
2018-04-06T14:14:01.528Z,99316.67
2018-04-06T14:16:30.350Z,99308.13
2018-04-06T14:18:58.672Z,99304.94
2018-04-06T14:21:27.308Z,99308.83
2018-04-06T14:23:57.162Z,99306.14
2018-04-06T14:26:25.955Z,99300.44
2018-04-06T14:28:55.975Z,99303.34
2018-04-06T14:31:25.530Z,99295.30
2018-04-06T14:33:55.658Z,99299.31
2018-04-06T14:36:24.038Z,99297.91
2018-04-06T14:38:53.244Z,99296.45
2018-04-06T14:41:21.558Z,99289.93
2018-04-06T14:43:50.410Z,99289.36
2018-04-06T14:46:21.329Z,99293.20
2018-04-06T14:48:49.665Z,99286.44
2018-04-06T14:51:18.063Z,99276.36
2018-04-06T14:53:46.390Z,99282.06
2018-04-06T14:56:15.549Z,99277.95
2018-04-06T14:58:44.824Z,99275.72
2018-04-06T15:01:14.155Z,99278.81
2018-04-06T15:03:42.509Z,99276.94
2018-04-06T15:06:12.016Z,99272.06
2018-04-06T15:08:41.327Z,99277.28
2018-04-06T15:11:10.920Z,99260.52
2018-04-06T15:13:39.282Z,99258.77
2018-04-06T15:16:08.588Z,99249.95
2018-04-06T15:18:37.896Z,99244.84
2018-04-06T15:21:06.252Z,99240.05
2018-04-06T15:23:35.343Z,99250.77
2018-04-06T15:26:04.801Z,99243.87
2018-04-06T15:28:33.714Z,99244.52
2018-04-06T15:31:02.868Z,99245.23
2018-04-06T15:33:31.238Z,99245.89
2018-04-06T15:36:01.580Z,99250.10
2018-04-06T15:38:29.976Z,99246.34
2018-04-06T15:40:58.468Z,99240.30
2018-04-06T15:43:28.076Z,99248.13
2018-04-06T15:45:57.619Z,99239.41
2018-04-06T15:48:26.060Z,99238.94
2018-04-06T15:50:56.262Z,99233.93
2018-04-06T15:53:24.983Z,99229.09
2018-04-06T15:55:53.626Z,99233.62
2018-04-06T15:58:21.951Z,99223.90
2018-04-06T16:00:50.736Z,99219.78
2018-04-06T16:03:19.865Z,99221.58
2018-04-06T16:05:48.966Z,99215.08
2018-04-06T16:08:19.132Z,99211.62
2018-04-06T16:10:47.525Z,99215.75
2018-04-06T16:13:16.116Z,99215.92
2018-04-06T16:15:44.485Z,99213.00
2018-04-06T16:18:17.007Z,99211.59
2018-04-06T16:20:45.748Z,99207.45
2018-04-06T16:23:14.870Z,99206.59
2018-04-06T16:25:43.220Z,99208.08
2018-04-06T16:28:12.832Z,99203.65
2018-04-06T16:30:41.881Z,99205.08
2018-04-06T16:33:10.240Z,99191.92
2018-04-06T16:35:38.576Z,99195.19
2018-04-06T16:38:06.925Z,99193.83
2018-04-06T16:40:35.292Z,99184.75
2018-04-06T16:43:03.664Z,99182.88
2018-04-06T16:45:32.036Z,99180.84
2018-04-06T16:48:01.132Z,99184.48
2018-04-06T16:50:30.606Z,99171.21
2018-04-06T16:53:02.906Z,99174.54
2018-04-06T16:55:31.438Z,99171.77
2018-04-06T16:57:59.957Z,99172.78
2018-04-06T17:00:28.288Z,99177.53
2018-04-06T17:02:56.822Z,99175.66
2018-04-06T17:05:25.211Z,99170.84
2018-04-06T17:07:55.059Z,99175.81
2018-04-06T17:10:23.462Z,99172.55
2018-04-06T17:12:51.806Z,99169.89
2018-04-06T17:15:20.928Z,99172.70
2018-04-06T17:17:51.457Z,99171.55
2018-04-06T17:20:19.840Z,99174.20
2018-04-06T17:22:48.854Z,99175.23
2018-04-06T17:25:17.909Z,99181.55
2018-04-06T17:27:46.772Z,99178.21
2018-04-06T17:30:16.531Z,99176.55
2018-04-06T17:32:44.969Z,99175.03
2018-04-06T17:35:14.058Z,99174.59
2018-04-06T17:37:42.460Z,99168.05
2018-04-06T17:40:13.171Z,99165.63
2018-04-06T17:42:43.344Z,99172.22
2018-04-06T17:45:13.438Z,99162.69
2018-04-06T17:47:41.890Z,99164.05
2018-04-06T17:50:11.184Z,99167.38
2018-04-06T17:55:13.497Z,99169.23
2018-04-06T17:57:41.894Z,99170.11
2018-04-06T18:00:12.010Z,99170.50
2018-04-06T18:02:40.401Z,99177.73
2018-04-06T18:05:10.282Z,99170.48
2018-04-06T18:07:39.459Z,99167.98
2018-04-06T18:10:08.743Z,99163.37
2018-04-06T18:12:38.172Z,99167.14
2018-04-06T18:15:07.584Z,99166.14
2018-04-06T18:17:36.739Z,99168.59
2018-04-06T18:20:06.326Z,99172.70
2018-04-06T18:22:36.184Z,99170.51
2018-04-06T18:25:06.039Z,99176.61
2018-04-06T18:27:34.429Z,99169.98
2018-04-06T18:30:03.518Z,99170.30
2018-04-06T18:32:32.336Z,99168.94
2018-04-06T18:35:01.787Z,99178.25
2018-04-06T18:37:32.056Z,99180.58
2018-04-06T18:40:01.431Z,99176.25
2018-04-06T18:42:31.276Z,99174.72
2018-04-06T18:44:59.674Z,99178.40
2018-04-06T18:47:28.764Z,99185.16
2018-04-06T18:49:57.853Z,99180.80
2018-04-06T18:52:26.958Z,99186.09
2018-04-06T18:54:56.134Z,99187.18
2018-04-06T18:57:24.781Z,99187.92
2018-04-06T18:59:56.089Z,99194.39
2018-04-06T19:02:26.542Z,99186.35
2018-04-06T19:04:57.778Z,99191.67
2018-04-06T19:07:26.190Z,99183.94
2018-04-06T19:09:55.385Z,99189.13
2018-04-06T19:12:24.560Z,99183.23
2018-04-06T19:14:52.884Z,99183.80
2018-04-06T19:17:21.313Z,99171.73
2018-04-06T19:19:51.006Z,99178.73
2018-04-06T19:22:19.436Z,99173.59
2018-04-06T19:24:48.216Z,99170.97
2018-04-06T19:27:17.325Z,99176.59
2018-04-06T19:29:46.679Z,99171.93
2018-04-06T19:32:16.389Z,99173.23
2018-04-06T19:34:44.787Z,99170.74
2018-04-06T19:37:14.092Z,99181.07
2018-04-06T19:39:42.487Z,99175.99
2018-04-06T19:42:12.650Z,99177.42
2018-04-06T19:44:41.898Z,99177.03
2018-04-06T19:47:11.178Z,99172.02
2018-04-06T19:49:39.628Z,99168.67
2018-04-06T19:52:08.947Z,99166.97
2018-04-06T19:54:37.314Z,99172.48
2018-04-06T19:57:05.706Z,99173.73
2018-04-06T19:59:36.948Z,99177.13
2018-04-06T20:02:05.698Z,99171.67
2018-04-06T20:04:35.471Z,99164.88
2018-04-06T20:07:05.218Z,99164.67
2018-04-06T20:09:33.611Z,99161.14
2018-04-06T20:12:04.619Z,99164.61
2018-04-06T20:14:33.540Z,99160.09
2018-04-06T20:17:03.151Z,99152.45
2018-04-06T20:19:34.509Z,99154.69
2018-04-06T20:22:04.067Z,99150.97
2018-04-06T20:24:33.432Z,99151.62
2018-04-06T20:27:01.886Z,99154.55
2018-04-06T20:29:31.000Z,99154.66
2018-04-06T20:31:59.383Z,99150.27
2018-04-06T20:34:28.460Z,99153.66
2018-04-06T20:36:58.652Z,99147.87
2018-04-06T20:39:31.163Z,99144.97
2018-04-06T20:42:00.170Z,99145.44
2018-04-06T20:44:30.280Z,99142.12
2018-04-06T20:46:58.621Z,99139.05
2018-04-06T20:49:27.851Z,99134.91
2018-04-06T20:51:57.857Z,99138.88
2018-04-06T20:54:28.337Z,99132.33
2018-04-06T20:56:58.353Z,99131.79
2018-04-06T20:59:28.122Z,99128.02
2018-04-06T21:01:57.528Z,99128.97
2018-04-06T21:04:27.991Z,99130.92
2018-04-06T21:06:58.089Z,99128.41
2018-04-06T21:09:26.904Z,99130.89
2018-04-06T21:11:56.995Z,99129.62
2018-04-06T21:14:26.438Z,99131.17
2018-04-06T21:16:56.020Z,99126.63
2018-04-06T21:19:25.301Z,99123.89
2018-04-06T21:21:54.099Z,99120.20
2018-04-06T21:24:24.036Z,99111.91
2018-04-06T21:26:54.237Z,99106.44
2018-04-06T21:29:23.031Z,99103.05
2018-04-06T21:31:51.463Z,99109.23
2018-04-06T21:34:19.927Z,99102.27
2018-04-06T21:36:48.307Z,99101.75
2018-04-06T21:39:18.114Z,99099.62
2018-04-06T21:44:20.718Z,99099.02
2018-04-06T21:46:50.008Z,99093.75
2018-04-06T21:49:19.163Z,99092.31
2018-04-06T21:51:48.441Z,99097.46
2018-04-06T21:54:18.962Z,99090.59
2018-04-06T21:56:49.688Z,99086.63
2018-04-06T21:59:22.349Z,99092.97
2018-04-06T22:01:54.236Z,99083.77
2018-04-06T22:04:22.550Z,99090.05
2018-04-06T22:06:51.241Z,99082.06
2018-04-06T22:09:22.186Z,99085.23
2018-04-06T22:11:51.556Z,99080.70
2018-04-06T22:14:20.740Z,99082.55
2018-04-06T22:16:49.154Z,99074.19
2018-04-06T22:19:18.865Z,99073.58
2018-04-06T22:21:47.539Z,99066.72
2018-04-06T22:24:17.398Z,99066.95
2018-04-06T22:26:45.782Z,99065.95
2018-04-06T22:29:15.991Z,99059.81
2018-04-06T22:31:44.417Z,99057.97
2018-04-06T22:34:14.028Z,99054.34
2018-04-06T22:36:43.293Z,99056.67
2018-04-06T22:39:11.662Z,99052.55
2018-04-06T22:41:40.939Z,99055.13
2018-04-06T22:44:10.050Z,99051.01
2018-04-06T22:46:39.982Z,99052.05
2018-04-06T22:49:10.898Z,99048.09
2018-04-06T22:51:41.846Z,99045.84
2018-04-06T22:54:10.934Z,99043.33
2018-04-06T22:56:39.264Z,99044.92
2018-04-06T22:59:08.292Z,99052.12
2018-04-06T23:01:40.505Z,99047.83
2018-04-06T23:04:10.331Z,99044.48
2018-04-06T23:06:38.939Z,99046.00
2018-04-06T23:09:09.779Z,99032.09
2018-04-06T23:11:38.393Z,99037.88
2018-04-06T23:14:07.795Z,99035.05
2018-04-06T23:16:37.186Z,99032.91
2018-04-06T23:19:05.535Z,99027.36
2018-04-06T23:21:39.128Z,99026.20
2018-04-06T23:24:08.920Z,99026.27
2018-04-06T23:26:38.849Z,99028.20
2018-04-06T23:29:07.473Z,99025.14
2018-04-06T23:31:36.836Z,99025.14
2018-04-06T23:34:05.302Z,99022.75
2018-04-06T23:36:36.704Z,99022.61
2018-04-06T23:39:06.936Z,99022.23
2018-04-06T23:41:36.161Z,99019.81
2018-04-06T23:44:05.151Z,99015.86
2018-04-06T23:46:34.250Z,99017.13
2018-04-06T23:49:03.266Z,99016.70
2018-04-06T23:51:31.599Z,99015.59
2018-04-06T23:54:03.855Z,99018.42
2018-04-06T23:56:33.044Z,99004.74
2018-04-06T23:59:01.830Z,99010.50
